createdAt,value
2018-09-14T00:00:20.244Z,15.73
2018-09-14T00:02:48.474Z,14.30
2018-09-14T00:05:16.617Z,14.00
2018-09-14T00:07:44.815Z,12.70
2018-09-14T00:10:12.955Z,13.80
2018-09-14T00:12:41.123Z,13.40
2018-09-14T00:15:09.266Z,14.50
2018-09-14T00:17:37.453Z,13.90
2018-09-14T00:20:05.617Z,14.70
2018-09-14T00:22:39.892Z,15.10
2018-09-14T00:25:08.017Z,16.03
2018-09-14T00:27:36.279Z,12.53
2018-09-14T00:30:04.540Z,14.10
2018-09-14T00:32:32.740Z,14.90
2018-09-14T00:35:00.951Z,15.77
2018-09-14T00:37:29.151Z,13.43
2018-09-14T00:39:57.401Z,14.83
2018-09-14T00:42:25.618Z,13.97
2018-09-14T00:44:53.806Z,13.97
2018-09-14T00:47:22.134Z,13.73
2018-09-14T00:49:50.348Z,17.90
2018-09-14T00:52:18.620Z,13.37
2018-09-14T00:54:46.803Z,13.30
2018-09-14T00:57:15.018Z,15.07
2018-09-14T00:59:43.215Z,15.47
2018-09-14T01:02:11.413Z,16.17
2018-09-14T01:04:39.678Z,15.87
2018-09-14T01:07:08.034Z,11.90
2018-09-14T01:09:36.275Z,12.55
2018-09-14T01:12:04.482Z,13.03
2018-09-14T01:14:32.744Z,20.20
2018-09-14T01:17:01.017Z,12.80
2018-09-14T01:19:29.259Z,14.83
2018-09-14T01:21:57.484Z,12.93
2018-09-14T01:24:25.854Z,15.05
2018-09-14T01:26:54.060Z,15.45
2018-09-14T01:29:22.268Z,16.12
2018-09-14T01:31:50.537Z,16.70
2018-09-14T01:34:18.740Z,14.53
2018-09-14T01:36:46.939Z,13.70
2018-09-14T01:39:15.154Z,14.70
2018-09-14T01:41:43.374Z,15.65
2018-09-14T01:44:11.586Z,14.53
2018-09-14T01:46:39.793Z,14.80
2018-09-14T01:49:08.297Z,18.37
2018-09-14T01:51:36.771Z,15.35
2018-09-14T01:54:05.051Z,16.12
2018-09-14T01:56:33.292Z,15.65
2018-09-14T01:59:01.572Z,15.15
2018-09-14T02:01:29.832Z,14.35
2018-09-14T02:03:58.068Z,30.37
2018-09-14T02:06:26.834Z,16.65
2018-09-14T02:08:55.471Z,17.32
2018-09-14T02:11:23.672Z,14.75
2018-09-14T02:13:51.910Z,18.23
2018-09-14T02:16:20.252Z,17.92
2018-09-14T02:18:48.461Z,16.67
2018-09-14T02:21:16.679Z,16.55
2018-09-14T02:23:44.863Z,13.55
2018-09-14T02:26:13.120Z,14.53
2018-09-14T02:28:41.351Z,17.48
2018-09-14T02:31:09.567Z,20.05
2018-09-14T02:33:37.764Z,17.62
2018-09-14T02:36:05.959Z,12.13
2018-09-14T02:38:34.159Z,21.97
2018-09-14T02:41:02.409Z,16.20
2018-09-14T02:43:30.635Z,13.72
2018-09-14T02:45:58.868Z,19.15
2018-09-14T02:48:27.127Z,15.65
2018-09-14T02:50:55.327Z,16.45
2018-09-14T02:53:23.561Z,20.27
2018-09-14T02:55:51.770Z,17.30
2018-09-14T02:58:20.014Z,17.23
2018-09-14T03:00:48.216Z,17.67
2018-09-14T03:03:16.431Z,15.28
2018-09-14T03:05:44.767Z,13.65
2018-09-14T03:08:12.973Z,14.68
2018-09-14T03:10:41.180Z,15.65
2018-09-14T03:13:09.567Z,20.50
2018-09-14T03:15:37.780Z,17.42
2018-09-14T03:18:06.004Z,20.27
2018-09-14T03:20:34.245Z,17.98
2018-09-14T03:23:02.448Z,18.20
2018-09-14T03:25:30.651Z,20.43
2018-09-14T03:27:58.827Z,19.07
2018-09-14T03:30:27.100Z,21.25
2018-09-14T03:32:55.332Z,21.82
2018-09-14T03:35:23.564Z,20.62
2018-09-14T03:37:51.786Z,20.25
2018-09-14T03:40:19.995Z,22.35
2018-09-14T03:42:48.219Z,27.17
2018-09-14T03:45:16.423Z,22.37
2018-09-14T03:47:44.630Z,20.43
2018-09-14T03:50:12.801Z,26.42
2018-09-14T03:52:41.120Z,29.27
2018-09-14T03:55:09.317Z,27.95
2018-09-14T03:57:37.527Z,25.35
2018-09-14T04:00:05.780Z,24.32
2018-09-14T04:02:33.970Z,22.30
2018-09-14T04:05:02.172Z,29.12
2018-09-14T04:07:30.562Z,28.32
2018-09-14T04:09:58.765Z,20.20
2018-09-14T04:12:26.960Z,24.92
2018-09-14T04:14:55.174Z,20.00
2018-09-14T04:17:23.381Z,25.55
2018-09-14T04:19:51.600Z,21.40
2018-09-14T04:22:19.870Z,24.45
2018-09-14T04:24:48.091Z,25.20
2018-09-14T04:27:16.284Z,24.05
2018-09-14T04:29:44.463Z,22.55
2018-09-14T04:32:12.707Z,22.17
2018-09-14T04:34:40.913Z,26.02
2018-09-14T04:37:09.103Z,25.45
2018-09-14T04:39:37.238Z,38.90
2018-09-14T04:42:05.385Z,28.77
2018-09-14T04:44:33.527Z,32.55
2018-09-14T04:47:01.679Z,28.23
2018-09-14T04:49:29.827Z,33.78
2018-09-14T04:51:57.976Z,21.93
2018-09-14T04:54:26.122Z,28.98
2018-09-14T04:56:54.301Z,36.77
2018-09-14T04:59:22.471Z,29.55
2018-09-14T05:01:50.612Z,27.85
2018-09-14T05:04:18.767Z,24.27
2018-09-14T05:06:46.915Z,29.18
2018-09-14T05:09:15.058Z,39.03
2018-09-14T05:11:43.219Z,33.95
2018-09-14T05:14:11.401Z,26.85
2018-09-14T05:16:39.536Z,25.05
2018-09-14T05:19:07.686Z,22.60
2018-09-14T05:21:35.811Z,24.23
2018-09-14T05:24:04.156Z,18.20
2018-09-14T05:26:32.311Z,33.98
2018-09-14T05:29:00.435Z,15.38
2018-09-14T05:31:28.847Z,20.32
2018-09-14T05:33:56.998Z,17.40
2018-09-14T05:36:25.139Z,15.15
2018-09-14T05:38:53.286Z,15.60
2018-09-14T05:41:21.429Z,16.65
2018-09-14T05:43:49.563Z,16.70
2018-09-14T05:46:17.822Z,12.35
2018-09-14T05:48:46.090Z,11.75
2018-09-14T05:51:14.202Z,13.50
2018-09-14T05:53:42.779Z,10.10
2018-09-14T05:56:10.918Z,11.97
2018-09-14T05:58:39.055Z,11.68
2018-09-14T06:01:07.190Z,11.38
2018-09-14T06:03:35.340Z,10.30
2018-09-14T06:06:03.488Z,11.97
2018-09-14T06:08:31.667Z,8.93
2018-09-14T06:10:59.832Z,9.58
2018-09-14T06:13:27.986Z,11.30
2018-09-14T06:15:56.129Z,8.55
2018-09-14T06:18:24.297Z,9.65
2018-09-14T06:20:52.476Z,11.35
2018-09-14T06:23:20.614Z,9.63
2018-09-14T06:25:48.755Z,10.72
2018-09-14T06:28:16.894Z,11.10
2018-09-14T06:30:45.051Z,14.18
2018-09-14T06:33:13.184Z,10.82
2018-09-14T06:35:41.335Z,12.58
2018-09-14T06:38:09.520Z,10.80
2018-09-14T06:40:37.627Z,10.80
2018-09-14T06:43:05.774Z,10.50
2018-09-14T06:45:33.939Z,9.00
2018-09-14T06:48:02.059Z,9.57
2018-09-14T06:50:30.202Z,12.45
2018-09-14T06:52:58.335Z,10.10
2018-09-14T06:55:26.475Z,11.78
2018-09-14T06:57:55.426Z,9.23
2018-09-14T07:00:23.747Z,19.50
2018-09-14T07:02:51.732Z,9.60
2018-09-14T07:05:19.856Z,11.53
2018-09-14T07:07:47.987Z,11.67
2018-09-14T07:10:16.142Z,11.17
2018-09-14T07:12:44.275Z,10.40
2018-09-14T07:15:12.407Z,10.10
2018-09-14T07:17:40.595Z,10.33
2018-09-14T07:20:08.753Z,13.40
2018-09-14T07:22:36.979Z,10.13
2018-09-14T07:25:05.157Z,12.87
2018-09-14T07:27:33.301Z,16.20
2018-09-14T07:30:01.446Z,12.53
2018-09-14T07:32:29.565Z,15.03
2018-09-14T07:34:57.697Z,13.40
2018-09-14T07:37:25.855Z,12.00
2018-09-14T07:39:53.980Z,14.47
2018-09-14T07:42:22.233Z,10.53
2018-09-14T07:44:50.359Z,12.07
2018-09-14T07:47:18.506Z,10.13
2018-09-14T07:49:46.639Z,14.87
2018-09-14T07:52:14.779Z,9.93
2018-09-14T07:54:42.911Z,10.20
2018-09-14T07:57:11.035Z,12.43
2018-09-14T07:59:39.169Z,12.50
2018-09-14T08:02:07.306Z,10.63
2018-09-14T08:04:35.470Z,11.47
2018-09-14T08:07:03.607Z,10.70
2018-09-14T08:09:31.775Z,10.90
2018-09-14T08:11:59.993Z,10.00
2018-09-14T08:14:28.049Z,19.00
2018-09-14T08:16:56.190Z,10.60
2018-09-14T08:19:24.318Z,9.70
2018-09-14T08:21:52.618Z,9.80
2018-09-14T08:24:20.607Z,10.40
2018-09-14T08:26:48.753Z,9.63
2018-09-14T08:29:16.870Z,9.53
2018-09-14T08:31:45.031Z,9.27
2018-09-14T08:34:13.187Z,9.17
2018-09-14T08:36:41.326Z,8.47
2018-09-14T08:39:10.625Z,9.00
2018-09-14T08:41:38.808Z,7.50
2018-09-14T08:44:06.978Z,8.17
2018-09-14T08:46:35.207Z,8.20
2018-09-14T08:49:03.556Z,9.03
2018-09-14T08:51:31.718Z,5.73
2018-09-14T08:53:59.901Z,5.80
2018-09-14T08:56:28.082Z,6.83
2018-09-14T08:58:56.242Z,5.33
2018-09-14T09:01:24.391Z,7.77
2018-09-14T09:03:52.648Z,5.40
2018-09-14T09:06:20.795Z,6.73
2018-09-14T09:08:48.955Z,5.87
2018-09-14T09:11:17.211Z,5.07
2018-09-14T09:13:45.327Z,5.93
2018-09-14T09:16:14.157Z,4.13
2018-09-14T09:18:42.333Z,3.00
2018-09-14T09:21:10.505Z,4.30
2018-09-14T09:23:38.653Z,3.70
2018-09-14T09:26:06.812Z,5.83
2018-09-14T09:28:35.027Z,6.30
2018-09-14T09:31:03.184Z,6.00
2018-09-14T09:33:31.375Z,6.80
2018-09-14T09:35:59.534Z,7.13
2018-09-14T09:38:27.678Z,5.90
2018-09-14T09:40:55.841Z,3.30
2018-09-14T09:43:24.202Z,4.60
2018-09-14T09:45:52.227Z,10.43
2018-09-14T09:48:20.496Z,6.73
2018-09-14T09:50:48.713Z,4.40
2018-09-14T09:53:16.860Z,5.70
2018-09-14T09:55:45.007Z,6.67
2018-09-14T09:58:13.163Z,9.70
2018-09-14T10:00:46.605Z,6.60
2018-09-14T10:03:16.016Z,7.93
2018-09-14T10:05:49.688Z,7.23
2018-09-14T10:08:17.933Z,8.33
2018-09-14T10:10:46.057Z,5.93
2018-09-14T10:13:14.247Z,8.77
2018-09-14T10:15:42.382Z,6.90
2018-09-14T10:18:10.524Z,6.43
2018-09-14T10:20:38.663Z,6.53
2018-09-14T10:23:06.866Z,9.23
2018-09-14T10:25:35.007Z,5.47
2018-09-14T10:28:03.171Z,8.73
2018-09-14T10:30:31.314Z,5.10
2018-09-14T10:32:59.478Z,5.23
2018-09-14T10:35:27.636Z,5.93
2018-09-14T10:37:55.974Z,10.30
2018-09-14T10:40:24.172Z,7.07
2018-09-14T10:42:52.866Z,9.30
2018-09-14T10:45:21.021Z,6.63
2018-09-14T10:47:49.195Z,5.03
2018-09-14T10:50:17.340Z,5.77
2018-09-14T10:52:45.487Z,5.97
2018-09-14T10:55:13.678Z,5.80
2018-09-14T10:57:41.811Z,6.40
2018-09-14T11:00:09.994Z,8.50
2018-09-14T11:02:38.127Z,8.10
2018-09-14T11:05:06.268Z,8.30
2018-09-14T11:07:34.393Z,8.40
2018-09-14T11:10:02.583Z,8.27
2018-09-14T11:12:30.723Z,8.80
2018-09-14T11:14:58.831Z,9.20
2018-09-14T11:17:26.979Z,10.50
2018-09-14T11:19:55.161Z,7.87
2018-09-14T11:22:23.298Z,7.70
2018-09-14T11:24:51.587Z,7.90
2018-09-14T11:27:19.590Z,7.50
2018-09-14T11:29:47.777Z,8.47
2018-09-14T11:32:15.924Z,9.20
2018-09-14T11:34:44.060Z,7.57
2018-09-14T11:37:12.287Z,5.97
2018-09-14T11:39:40.341Z,7.30
2018-09-14T11:42:08.479Z,6.83
2018-09-14T11:44:36.709Z,9.97
2018-09-14T11:47:04.854Z,10.23
2018-09-14T11:49:32.995Z,9.30
2018-09-14T11:52:01.168Z,9.40
2018-09-14T11:54:29.302Z,13.67
2018-09-14T11:56:57.458Z,10.87
2018-09-14T11:59:25.593Z,10.13
2018-09-14T12:01:54.045Z,7.87
2018-09-14T12:04:22.210Z,9.70
2018-09-14T12:06:50.359Z,7.33
2018-09-14T12:09:18.499Z,16.33
2018-09-14T12:11:46.647Z,7.97
2018-09-14T12:14:14.779Z,10.00
2018-09-14T12:16:42.928Z,5.33
2018-09-14T12:19:11.046Z,6.20
2018-09-14T12:21:39.196Z,5.33
2018-09-14T12:24:07.371Z,7.87
2018-09-14T12:26:35.511Z,9.00
2018-09-14T12:29:03.643Z,8.57
2018-09-14T12:31:31.772Z,8.83
2018-09-14T12:33:59.907Z,7.73
2018-09-14T12:36:28.059Z,11.03
2018-09-14T12:38:56.217Z,9.53
2018-09-14T12:41:24.356Z,11.73
2018-09-14T12:43:52.490Z,9.10
2018-09-14T12:46:20.727Z,9.10
2018-09-14T12:48:48.879Z,12.60
2018-09-14T12:51:17.010Z,7.63
2018-09-14T12:53:45.153Z,9.53
2018-09-14T12:56:13.291Z,7.90
2018-09-14T12:58:41.427Z,7.37
2018-09-14T13:01:09.572Z,7.73
2018-09-14T13:03:37.718Z,6.87
2018-09-14T13:06:05.843Z,8.30
2018-09-14T13:08:33.989Z,7.07
2018-09-14T13:11:02.131Z,7.00
2018-09-14T13:13:30.259Z,6.97
2018-09-14T13:15:58.423Z,6.50
2018-09-14T13:18:26.596Z,4.63
2018-09-14T13:20:54.739Z,10.63
2018-09-14T13:23:22.908Z,4.70
2018-09-14T13:25:51.041Z,6.83
2018-09-14T13:28:19.187Z,6.00
2018-09-14T13:30:47.325Z,9.80
2018-09-14T13:33:15.459Z,8.30
2018-09-14T13:35:43.590Z,7.97
2018-09-14T13:38:11.716Z,5.30
2018-09-14T13:40:39.911Z,9.40
2018-09-14T13:43:08.047Z,8.23
2018-09-14T13:45:36.180Z,11.20
2018-09-14T13:48:04.335Z,10.33
2018-09-14T13:50:32.550Z,15.93
2018-09-14T13:53:00.679Z,14.13
2018-09-14T13:55:28.808Z,12.47
2018-09-14T13:57:56.953Z,9.83
2018-09-14T14:00:25.091Z,10.70
2018-09-14T14:02:53.291Z,8.73
2018-09-14T14:05:21.472Z,11.43
2018-09-14T14:07:49.641Z,11.53
2018-09-14T14:10:17.835Z,8.00
2018-09-14T14:12:45.910Z,9.67
2018-09-14T14:15:14.082Z,5.30
2018-09-14T14:17:42.262Z,5.10
2018-09-14T14:20:10.399Z,6.60
2018-09-14T14:22:38.534Z,6.97
2018-09-14T14:25:06.790Z,9.10
2018-09-14T14:27:35.067Z,9.60
2018-09-14T14:30:03.453Z,7.33
2018-09-14T14:32:31.661Z,9.70
2018-09-14T14:34:59.791Z,17.83
2018-09-14T14:37:27.947Z,8.10
2018-09-14T14:39:56.232Z,6.47
2018-09-14T14:42:24.426Z,7.93
2018-09-14T14:44:52.560Z,5.63
2018-09-14T14:47:20.701Z,8.50
2018-09-14T14:49:48.855Z,11.00
2018-09-14T14:52:16.958Z,12.23
2018-09-14T14:54:45.096Z,9.33
2018-09-14T14:57:13.260Z,15.17
2018-09-14T14:59:41.392Z,6.50
2018-09-14T15:02:09.569Z,6.60
2018-09-14T15:04:37.789Z,10.90
2018-09-14T15:07:06.013Z,15.00
2018-09-14T15:09:34.183Z,9.30
2018-09-14T15:12:02.344Z,10.13
2018-09-14T15:14:34.186Z,9.63
2018-09-14T15:17:04.224Z,18.03
2018-09-14T15:19:33.164Z,13.73
2018-09-14T15:22:02.122Z,12.30
2018-09-14T15:24:30.314Z,14.40
2018-09-14T15:26:58.492Z,16.13
2018-09-14T15:29:27.543Z,12.00
2018-09-14T15:31:55.701Z,16.20
2018-09-14T15:34:23.838Z,16.07
2018-09-14T15:36:52.143Z,15.70
2018-09-14T15:39:20.368Z,13.30
2018-09-14T15:41:48.472Z,12.30
2018-09-14T15:44:16.717Z,13.30
2018-09-14T15:46:44.855Z,13.70
2018-09-14T15:49:13.104Z,17.37
2018-09-14T15:51:41.180Z,18.47
2018-09-14T15:54:09.403Z,75.87
2018-09-14T15:56:37.944Z,17.20
2018-09-14T15:59:06.131Z,16.53
2018-09-14T16:01:34.335Z,41.30
2018-09-14T16:04:02.528Z,21.17
2018-09-14T16:06:30.671Z,15.67
2018-09-14T16:08:58.795Z,12.10
2018-09-14T16:11:26.941Z,14.00
2018-09-14T16:13:55.153Z,13.63
2018-09-14T16:16:23.267Z,13.23
2018-09-14T16:18:51.434Z,11.43
2018-09-14T16:21:19.582Z,11.03
2018-09-14T16:23:52.789Z,11.83
2018-09-14T16:26:21.271Z,11.03
2018-09-14T16:28:49.487Z,12.20
2018-09-14T16:31:17.644Z,17.87
2018-09-14T16:33:45.775Z,13.17
2018-09-14T16:36:13.926Z,15.63
2018-09-14T16:38:42.091Z,12.20
2018-09-14T16:41:10.272Z,19.80
2018-09-14T16:43:38.471Z,15.47
2018-09-14T16:46:06.647Z,16.93
2018-09-14T16:48:34.792Z,13.70
2018-09-14T16:51:02.953Z,13.87
2018-09-14T16:53:31.107Z,48.90
2018-09-14T16:55:59.313Z,24.90
2018-09-14T16:58:27.463Z,67.93
2018-09-14T17:00:55.603Z,101.47
2018-09-14T17:03:23.754Z,27.10
2018-09-14T17:05:51.894Z,18.67
2018-09-14T17:08:22.056Z,12.90
2018-09-14T17:10:56.175Z,15.93
2018-09-14T17:13:24.304Z,19.30
2018-09-14T17:15:52.425Z,15.20
2018-09-14T17:18:20.567Z,10.60
2018-09-14T17:20:48.712Z,9.20
2018-09-14T17:23:16.867Z,9.07
2018-09-14T17:25:46.007Z,6.87
2018-09-14T17:28:14.248Z,9.73
2018-09-14T17:30:42.568Z,6.20
2018-09-14T17:33:10.771Z,8.27
2018-09-14T17:35:38.962Z,8.60
2018-09-14T17:38:07.036Z,10.13
2018-09-14T17:40:35.155Z,11.10
2018-09-14T17:43:03.300Z,8.63
2018-09-14T17:45:31.462Z,11.77
2018-09-14T17:47:59.581Z,9.47
2018-09-14T17:50:27.713Z,14.93
2018-09-14T17:52:55.837Z,8.67
2018-09-14T17:55:23.947Z,9.00
2018-09-14T17:57:52.090Z,12.13
2018-09-14T18:00:20.222Z,6.73
2018-09-14T18:02:48.334Z,9.87
2018-09-14T18:05:16.454Z,11.00
2018-09-14T18:07:44.575Z,9.77
2018-09-14T18:10:12.706Z,12.63
2018-09-14T18:12:40.872Z,129.67
2018-09-14T18:15:09.039Z,133.23
2018-09-14T18:17:37.158Z,121.67
2018-09-14T18:20:05.311Z,86.83
2018-09-14T18:22:33.447Z,31.03
2018-09-14T18:25:01.579Z,17.73
2018-09-14T18:27:29.805Z,16.60
2018-09-14T18:29:57.955Z,26.73
2018-09-14T18:32:27.286Z,23.33
2018-09-14T18:34:55.569Z,21.50
2018-09-14T18:37:23.813Z,32.67
2018-09-14T18:39:52.356Z,35.80
2018-09-14T18:42:20.730Z,25.40
2018-09-14T18:44:49.005Z,18.60
2018-09-14T18:47:19.243Z,16.23
2018-09-14T18:49:47.531Z,17.67
2018-09-14T18:52:15.662Z,16.37
2018-09-14T18:54:43.797Z,19.97
2018-09-14T18:57:11.936Z,15.37
2018-09-14T18:59:40.067Z,17.93
2018-09-14T19:02:08.291Z,15.20
2018-09-14T19:04:36.779Z,20.37
2018-09-14T19:07:04.987Z,14.93
2018-09-14T19:09:33.282Z,16.80
2018-09-14T19:12:01.683Z,17.00
2018-09-14T19:14:32.962Z,10.13
2018-09-14T19:17:01.155Z,11.60
2018-09-14T19:19:29.693Z,13.80
2018-09-14T19:21:57.830Z,24.13
2018-09-14T19:24:26.150Z,11.40
2018-09-14T19:26:54.435Z,9.17
2018-09-14T19:29:22.699Z,11.10
2018-09-14T19:31:50.856Z,8.10
2018-09-14T19:34:19.064Z,11.17
2018-09-14T19:36:47.252Z,9.77
2018-09-14T19:39:15.504Z,10.00
2018-09-14T19:41:43.715Z,9.33
2018-09-14T19:44:11.957Z,15.80
2018-09-14T19:46:40.319Z,10.93
2018-09-14T19:49:08.583Z,10.63
2018-09-14T19:51:36.891Z,7.50
2018-09-14T19:54:04.995Z,9.50
2018-09-14T19:56:33.525Z,5.80
2018-09-14T19:59:03.647Z,6.17
2018-09-14T20:01:33.264Z,8.63
2018-09-14T20:04:02.179Z,7.73
2018-09-14T20:06:31.088Z,8.67
2018-09-14T20:09:00.391Z,10.48
2018-09-14T20:11:29.720Z,5.60
2018-09-14T20:13:58.923Z,7.27
2018-09-14T20:16:28.345Z,16.40
2018-09-14T20:18:58.448Z,9.60
2018-09-14T20:21:27.594Z,13.23
2018-09-14T20:23:57.367Z,9.97
2018-09-14T20:26:25.622Z,7.60
2018-09-14T20:28:54.386Z,9.63
2018-09-14T20:31:23.110Z,10.50
2018-09-14T20:33:51.722Z,10.80
2018-09-14T20:36:29.703Z,9.60
2018-09-14T20:38:59.203Z,6.47
2018-09-14T20:41:27.403Z,8.27
2018-09-14T20:43:56.906Z,10.77
2018-09-14T20:46:25.279Z,9.30
2018-09-14T20:48:53.952Z,6.40
2018-09-14T20:51:22.431Z,6.83
2018-09-14T20:53:52.236Z,8.40
2018-09-14T20:56:20.467Z,7.80
2018-09-14T20:58:48.879Z,8.90
2018-09-14T21:01:17.439Z,6.93
2018-09-14T21:03:45.863Z,8.70
2018-09-14T21:06:16.257Z,6.43
2018-09-14T21:08:46.294Z,8.70
2018-09-14T21:11:15.105Z,5.97
2018-09-14T21:13:44.924Z,7.08
2018-09-14T21:16:13.163Z,7.50
2018-09-14T21:18:42.923Z,7.25
2018-09-14T21:21:11.607Z,6.33
2018-09-14T21:23:40.328Z,5.85
2018-09-14T21:26:12.984Z,6.80
2018-09-14T21:28:42.049Z,5.08
2018-09-14T21:31:10.187Z,6.40
2018-09-14T21:33:38.391Z,6.37
2018-09-14T21:36:06.507Z,6.70
2018-09-14T21:38:34.654Z,7.12
2018-09-14T21:41:02.998Z,8.40
2018-09-14T21:43:31.135Z,11.38
2018-09-14T21:45:59.286Z,5.55
2018-09-14T21:48:27.451Z,5.47
2018-09-14T21:50:55.615Z,7.20
2018-09-14T21:53:23.779Z,5.55
2018-09-14T21:55:51.928Z,5.67
2018-09-14T21:58:20.059Z,11.68
2018-09-14T22:01:12.583Z,7.12
2018-09-14T22:03:41.002Z,6.47
2018-09-14T22:06:09.150Z,5.62
2018-09-14T22:08:37.304Z,5.85
2018-09-14T22:11:05.439Z,6.40
2018-09-14T22:13:33.589Z,8.40
2018-09-14T22:16:12.533Z,8.85
2018-09-14T22:18:40.684Z,7.40
2018-09-14T22:21:08.826Z,5.55
2018-09-14T22:23:36.976Z,7.35
2018-09-14T22:26:05.139Z,5.90
2018-09-14T22:28:33.364Z,6.78
2018-09-14T22:31:01.512Z,5.20
2018-09-14T22:33:29.667Z,5.83
2018-09-14T22:35:57.819Z,7.83
2018-09-14T22:38:26.001Z,10.82
2018-09-14T22:40:54.144Z,7.70
2018-09-14T22:43:22.314Z,5.97
2018-09-14T22:45:51.091Z,8.58
2018-09-14T22:48:19.243Z,5.60
2018-09-14T22:50:47.391Z,7.08
2018-09-14T22:53:15.535Z,10.13
2018-09-14T22:55:43.692Z,7.30
2018-09-14T22:58:11.835Z,6.78
2018-09-14T23:01:46.890Z,6.35
2018-09-14T23:04:15.023Z,6.17
2018-09-14T23:06:43.158Z,7.65
2018-09-14T23:09:11.327Z,9.50
2018-09-14T23:11:39.455Z,6.25
2018-09-14T23:14:07.611Z,7.80
2018-09-14T23:16:35.724Z,6.08
2018-09-14T23:19:03.904Z,8.08
2018-09-14T23:21:32.044Z,5.37
2018-09-14T23:24:00.201Z,10.38
2018-09-14T23:26:51.565Z,5.50
2018-09-14T23:29:19.730Z,6.90
2018-09-14T23:31:47.855Z,6.33
2018-09-14T23:34:15.998Z,7.45
2018-09-14T23:36:44.142Z,7.05
2018-09-14T23:39:12.674Z,5.25
2018-09-14T23:41:40.817Z,7.17
2018-09-14T23:44:09.222Z,5.72
2018-09-14T23:46:37.367Z,7.35
2018-09-14T23:49:05.686Z,7.95
2018-09-14T23:51:33.902Z,9.38
2018-09-14T23:54:02.029Z,7.20
2018-09-14T23:56:30.171Z,6.58
2018-09-14T23:58:58.336Z,6.42
